sensor_id;sensor_type;location;lat;lon;timestamp;P1;durP1;ratioP1;P2;durP2;ratioP2
7659;SDS011;3872;47.902;8.162;2023-01-28T00:01:29;14.13;;;6.47;;
7659;SDS011;3872;47.902;8.162;2023-01-28T00:03:56;14.30;;;6.63;;
7659;SDS011;3872;47.902;8.162;2023-01-28T00:06:22;12.20;;;6.70;;
7659;SDS011;3872;47.902;8.162;2023-01-28T00:08:49;12.70;;;6.10;;
7659;SDS011;3872;47.902;8.162;2023-01-28T00:11:15;17.23;;;7.90;;
7659;SDS011;3872;47.902;8.162;2023-01-28T00:13:42;14.90;;;6.13;;
7659;SDS011;3872;47.902;8.162;2023-01-28T00:16:08;14.30;;;5.60;;
7659;SDS011;3872;47.902;8.162;2023-01-28T00:18:37;13.83;;;5.73;;
7659;SDS011;3872;47.902;8.162;2023-01-28T00:21:04;14.00;;;6.40;;
7659;SDS011;3872;47.902;8.162;2023-01-28T00:23:33;11.97;;;6.30;;
7659;SDS011;3872;47.902;8.162;2023-01-28T00:26:11;14.80;;;6.77;;
7659;SDS011;3872;47.902;8.162;2023-01-28T00:28:41;18.70;;;7.90;;
7659;SDS011;3872;47.902;8.162;2023-01-28T00:31:11;16.17;;;7.20;;
7659;SDS011;3872;47.902;8.162;2023-01-28T00:33:42;17.27;;;7.03;;
7659;SDS011;3872;47.902;8.162;2023-01-28T00:36:10;20.17;;;7.93;;
7659;SDS011;3872;47.902;8.162;2023-01-28T00:38:38;27.70;;;8.03;;
7659;SDS011;3872;47.902;8.162;2023-01-28T00:41:06;13.60;;;6.90;;
7659;SDS011;3872;47.902;8.162;2023-01-28T00:43:34;18.70;;;8.23;;
7659;SDS011;3872;47.902;8.162;2023-01-28T00:46:01;17.13;;;6.90;;
7659;SDS011;3872;47.902;8.162;2023-01-28T00:48:27;23.67;;;7.33;;
7659;SDS011;3872;47.902;8.162;2023-01-28T00:50:55;13.97;;;5.90;;
7659;SDS011;3872;47.902;8.162;2023-01-28T00:53:22;21.63;;;8.73;;
7659;SDS011;3872;47.902;8.162;2023-01-28T00:55:49;17.73;;;7.73;;
7659;SDS011;3872;47.902;8.162;2023-01-28T00:58:15;21.13;;;8.20;;
7659;SDS011;3872;47.902;8.162;2023-01-28T01:00:42;17.33;;;6.93;;
7659;SDS011;3872;47.902;8.162;2023-01-28T01:03:08;19.10;;;7.80;;
7659;SDS011;3872;47.902;8.162;2023-01-28T01:05:35;20.30;;;8.10;;
7659;SDS011;3872;47.902;8.162;2023-01-28T01:08:04;19.83;;;6.67;;
7659;SDS011;3872;47.902;8.162;2023-01-28T01:10:30;13.97;;;7.60;;
7659;SDS011;3872;47.902;8.162;2023-01-28T01:12:58;22.47;;;8.43;;
7659;SDS011;3872;47.902;8.162;2023-01-28T01:15:25;15.17;;;7.07;;
7659;SDS011;3872;47.902;8.162;2023-01-28T01:17:52;22.10;;;7.50;;
7659;SDS011;3872;47.902;8.162;2023-01-28T01:20:19;17.47;;;6.93;;
7659;SDS011;3872;47.902;8.162;2023-01-28T01:22:49;17.90;;;7.60;;
7659;SDS011;3872;47.902;8.162;2023-01-28T01:25:17;19.83;;;7.10;;
7659;SDS011;3872;47.902;8.162;2023-01-28T01:27:47;18.93;;;6.70;;
7659;SDS011;3872;47.902;8.162;2023-01-28T01:30:14;16.27;;;7.43;;
7659;SDS011;3872;47.902;8.162;2023-01-28T01:32:41;15.37;;;5.87;;
7659;SDS011;3872;47.902;8.162;2023-01-28T01:35:08;18.90;;;7.30;;
7659;SDS011;3872;47.902;8.162;2023-01-28T01:37:37;20.27;;;8.77;;
7659;SDS011;3872;47.902;8.162;2023-01-28T01:40:04;20.63;;;7.50;;
7659;SDS011;3872;47.902;8.162;2023-01-28T01:42:33;14.60;;;6.50;;
7659;SDS011;3872;47.902;8.162;2023-01-28T01:45:00;17.07;;;6.90;;
7659;SDS011;3872;47.902;8.162;2023-01-28T01:47:31;16.83;;;6.67;;
7659;SDS011;3872;47.902;8.162;2023-01-28T01:50:06;15.40;;;6.83;;
7659;SDS011;3872;47.902;8.162;2023-01-28T01:52:38;18.27;;;6.33;;
7659;SDS011;3872;47.902;8.162;2023-01-28T01:55:08;14.53;;;7.03;;
7659;SDS011;3872;47.902;8.162;2023-01-28T01:57:38;21.13;;;6.70;;
7659;SDS011;3872;47.902;8.162;2023-01-28T02:00:07;18.73;;;6.73;;
7659;SDS011;3872;47.902;8.162;2023-01-28T02:02:41;13.40;;;6.07;;
7659;SDS011;3872;47.902;8.162;2023-01-28T02:05:10;16.27;;;7.37;;
7659;SDS011;3872;47.902;8.162;2023-01-28T02:07:38;15.67;;;5.73;;
7659;SDS011;3872;47.902;8.162;2023-01-28T02:10:07;17.50;;;6.10;;
7659;SDS011;3872;47.902;8.162;2023-01-28T02:12:35;23.17;;;7.30;;
7659;SDS011;3872;47.902;8.162;2023-01-28T02:15:07;12.83;;;6.33;;
7659;SDS011;3872;47.902;8.162;2023-01-28T02:17:35;14.20;;;6.33;;
7659;SDS011;3872;47.902;8.162;2023-01-28T02:20:04;12.80;;;6.10;;
7659;SDS011;3872;47.902;8.162;2023-01-28T02:22:50;10.37;;;5.70;;
7659;SDS011;3872;47.902;8.162;2023-01-28T02:25:52;14.27;;;6.03;;
7659;SDS011;3872;47.902;8.162;2023-01-28T02:28:37;14.90;;;5.77;;
7659;SDS011;3872;47.902;8.162;2023-01-28T02:31:10;15.80;;;7.00;;
7659;SDS011;3872;47.902;8.162;2023-01-28T02:33:42;15.40;;;6.47;;
7659;SDS011;3872;47.902;8.162;2023-01-28T02:36:16;22.17;;;7.43;;
7659;SDS011;3872;47.902;8.162;2023-01-28T02:38:49;15.50;;;7.00;;
7659;SDS011;3872;47.902;8.162;2023-01-28T02:41:20;21.10;;;6.17;;
7659;SDS011;3872;47.902;8.162;2023-01-28T02:43:55;11.27;;;4.77;;
7659;SDS011;3872;47.902;8.162;2023-01-28T02:46:32;16.63;;;6.90;;
7659;SDS011;3872;47.902;8.162;2023-01-28T02:49:19;13.90;;;6.10;;
7659;SDS011;3872;47.902;8.162;2023-01-28T02:52:00;12.80;;;6.10;;
7659;SDS011;3872;47.902;8.162;2023-01-28T02:54:36;13.30;;;6.23;;
7659;SDS011;3872;47.902;8.162;2023-01-28T02:57:08;16.27;;;7.03;;
7659;SDS011;3872;47.902;8.162;2023-01-28T02:59:45;16.00;;;7.10;;
7659;SDS011;3872;47.902;8.162;2023-01-28T03:02:21;17.43;;;8.33;;
7659;SDS011;3872;47.902;8.162;2023-01-28T03:04:56;14.77;;;7.07;;
7659;SDS011;3872;47.902;8.162;2023-01-28T03:07:28;20.60;;;7.37;;
7659;SDS011;3872;47.902;8.162;2023-01-28T03:09:57;17.33;;;7.03;;
7659;SDS011;3872;47.902;8.162;2023-01-28T03:12:28;16.80;;;7.27;;
7659;SDS011;3872;47.902;8.162;2023-01-28T03:15:16;19.57;;;7.27;;
7659;SDS011;3872;47.902;8.162;2023-01-28T03:18:03;15.83;;;7.20;;
7659;SDS011;3872;47.902;8.162;2023-01-28T03:20:50;16.73;;;7.50;;
7659;SDS011;3872;47.902;8.162;2023-01-28T03:23:43;19.13;;;7.57;;
7659;SDS011;3872;47.902;8.162;2023-01-28T03:26:34;18.97;;;6.50;;
7659;SDS011;3872;47.902;8.162;2023-01-28T03:29:24;15.83;;;7.30;;
7659;SDS011;3872;47.902;8.162;2023-01-28T03:32:15;15.83;;;6.57;;
7659;SDS011;3872;47.902;8.162;2023-01-28T03:35:02;15.43;;;7.77;;
7659;SDS011;3872;47.902;8.162;2023-01-28T03:37:49;22.70;;;8.20;;
7659;SDS011;3872;47.902;8.162;2023-01-28T03:40:20;18.73;;;8.73;;
7659;SDS011;3872;47.902;8.162;2023-01-28T03:42:46;21.67;;;7.40;;
7659;SDS011;3872;47.902;8.162;2023-01-28T03:45:39;17.20;;;7.63;;
7659;SDS011;3872;47.902;8.162;2023-01-28T03:48:07;23.20;;;8.60;;
7659;SDS011;3872;47.902;8.162;2023-01-28T03:50:33;17.47;;;8.00;;
7659;SDS011;3872;47.902;8.162;2023-01-28T03:53:00;14.90;;;7.20;;
7659;SDS011;3872;47.902;8.162;2023-01-28T03:55:43;19.43;;;7.60;;
7659;SDS011;3872;47.902;8.162;2023-01-28T03:58:11;14.50;;;7.50;;
7659;SDS011;3872;47.902;8.162;2023-01-28T04:00:38;15.97;;;7.53;;
7659;SDS011;3872;47.902;8.162;2023-01-28T04:03:07;15.80;;;7.20;;
7659;SDS011;3872;47.902;8.162;2023-01-28T04:05:41;17.30;;;7.37;;
7659;SDS011;3872;47.902;8.162;2023-01-28T04:08:07;18.30;;;7.70;;
7659;SDS011;3872;47.902;8.162;2023-01-28T04:10:52;16.00;;;8.07;;
7659;SDS011;3872;47.902;8.162;2023-01-28T04:13:24;23.37;;;8.63;;
7659;SDS011;3872;47.902;8.162;2023-01-28T04:15:52;13.80;;;6.83;;
7659;SDS011;3872;47.902;8.162;2023-01-28T04:18:20;18.33;;;7.67;;
7659;SDS011;3872;47.902;8.162;2023-01-28T04:20:51;17.10;;;7.40;;
7659;SDS011;3872;47.902;8.162;2023-01-28T04:23:18;17.70;;;7.30;;
7659;SDS011;3872;47.902;8.162;2023-01-28T04:25:44;15.47;;;6.97;;
7659;SDS011;3872;47.902;8.162;2023-01-28T04:28:14;15.60;;;7.73;;
7659;SDS011;3872;47.902;8.162;2023-01-28T04:30:41;22.17;;;7.97;;
7659;SDS011;3872;47.902;8.162;2023-01-28T04:33:28;15.33;;;6.90;;
7659;SDS011;3872;47.902;8.162;2023-01-28T04:36:17;14.50;;;6.00;;
7659;SDS011;3872;47.902;8.162;2023-01-28T04:38:59;17.93;;;7.10;;
7659;SDS011;3872;47.902;8.162;2023-01-28T04:41:35;11.60;;;5.80;;
7659;SDS011;3872;47.902;8.162;2023-01-28T04:44:13;14.90;;;7.00;;
7659;SDS011;3872;47.902;8.162;2023-01-28T04:47:07;17.00;;;7.00;;
7659;SDS011;3872;47.902;8.162;2023-01-28T04:49:49;15.80;;;5.90;;
7659;SDS011;3872;47.902;8.162;2023-01-28T04:52:41;14.27;;;6.60;;
7659;SDS011;3872;47.902;8.162;2023-01-28T04:55:33;12.80;;;5.93;;
7659;SDS011;3872;47.902;8.162;2023-01-28T04:57:59;15.10;;;5.90;;
7659;SDS011;3872;47.902;8.162;2023-01-28T05:00:26;10.77;;;5.23;;
7659;SDS011;3872;47.902;8.162;2023-01-28T05:02:53;15.27;;;7.30;;
7659;SDS011;3872;47.902;8.162;2023-01-28T05:05:21;11.83;;;5.33;;
7659;SDS011;3872;47.902;8.162;2023-01-28T05:07:57;11.30;;;4.90;;
7659;SDS011;3872;47.902;8.162;2023-01-28T05:10:24;12.67;;;6.00;;
7659;SDS011;3872;47.902;8.162;2023-01-28T05:12:52;14.70;;;5.70;;
7659;SDS011;3872;47.902;8.162;2023-01-28T05:15:20;13.63;;;5.57;;
7659;SDS011;3872;47.902;8.162;2023-01-28T05:17:47;17.20;;;6.57;;
7659;SDS011;3872;47.902;8.162;2023-01-28T05:20:17;10.83;;;5.50;;
7659;SDS011;3872;47.902;8.162;2023-01-28T05:22:47;11.23;;;5.80;;
7659;SDS011;3872;47.902;8.162;2023-01-28T05:25:17;15.10;;;6.67;;
7659;SDS011;3872;47.902;8.162;2023-01-28T05:27:48;17.07;;;7.70;;
7659;SDS011;3872;47.902;8.162;2023-01-28T05:30:15;16.33;;;6.73;;
7659;SDS011;3872;47.902;8.162;2023-01-28T05:32:42;14.47;;;6.73;;
7659;SDS011;3872;47.902;8.162;2023-01-28T05:35:09;13.10;;;6.57;;
7659;SDS011;3872;47.902;8.162;2023-01-28T05:37:36;11.83;;;5.47;;
7659;SDS011;3872;47.902;8.162;2023-01-28T05:40:05;12.50;;;5.63;;
7659;SDS011;3872;47.902;8.162;2023-01-28T05:42:32;12.00;;;5.13;;
7659;SDS011;3872;47.902;8.162;2023-01-28T05:45:22;17.03;;;7.63;;
7659;SDS011;3872;47.902;8.162;2023-01-28T05:48:01;12.63;;;6.30;;
7659;SDS011;3872;47.902;8.162;2023-01-28T05:50:54;11.90;;;5.40;;
7659;SDS011;3872;47.902;8.162;2023-01-28T05:53:29;10.40;;;5.20;;
7659;SDS011;3872;47.902;8.162;2023-01-28T05:55:57;15.43;;;6.60;;
7659;SDS011;3872;47.902;8.162;2023-01-28T05:58:25;16.20;;;6.60;;
7659;SDS011;3872;47.902;8.162;2023-01-28T06:00:55;11.37;;;5.57;;
7659;SDS011;3872;47.902;8.162;2023-01-28T06:03:27;15.70;;;5.80;;
7659;SDS011;3872;47.902;8.162;2023-01-28T06:05:54;13.00;;;5.63;;
7659;SDS011;3872;47.902;8.162;2023-01-28T06:08:21;15.73;;;5.97;;
7659;SDS011;3872;47.902;8.162;2023-01-28T06:10:47;12.67;;;6.03;;
7659;SDS011;3872;47.902;8.162;2023-01-28T06:13:15;13.23;;;6.10;;
7659;SDS011;3872;47.902;8.162;2023-01-28T06:16:01;11.13;;;6.10;;
7659;SDS011;3872;47.902;8.162;2023-01-28T06:18:39;11.23;;;5.77;;
7659;SDS011;3872;47.902;8.162;2023-01-28T06:21:07;11.20;;;5.10;;
7659;SDS011;3872;47.902;8.162;2023-01-28T06:23:33;7.80;;;4.73;;
7659;SDS011;3872;47.902;8.162;2023-01-28T06:26:02;15.43;;;5.80;;
7659;SDS011;3872;47.902;8.162;2023-01-28T06:28:30;8.93;;;4.50;;
7659;SDS011;3872;47.902;8.162;2023-01-28T06:30:57;13.87;;;4.83;;
7659;SDS011;3872;47.902;8.162;2023-01-28T06:33:23;10.90;;;3.87;;
7659;SDS011;3872;47.902;8.162;2023-01-28T06:35:50;10.40;;;4.97;;
7659;SDS011;3872;47.902;8.162;2023-01-28T06:38:17;10.53;;;5.10;;
7659;SDS011;3872;47.902;8.162;2023-01-28T06:40:43;9.20;;;4.90;;
7659;SDS011;3872;47.902;8.162;2023-01-28T06:43:10;15.60;;;5.03;;
7659;SDS011;3872;47.902;8.162;2023-01-28T06:45:37;11.03;;;6.00;;
7659;SDS011;3872;47.902;8.162;2023-01-28T06:48:05;15.83;;;6.70;;
7659;SDS011;3872;47.902;8.162;2023-01-28T06:50:31;12.60;;;5.50;;
7659;SDS011;3872;47.902;8.162;2023-01-28T06:52:58;11.73;;;4.83;;
7659;SDS011;3872;47.902;8.162;2023-01-28T06:55:24;10.57;;;4.90;;
7659;SDS011;3872;47.902;8.162;2023-01-28T06:57:51;11.00;;;5.17;;
7659;SDS011;3872;47.902;8.162;2023-01-28T07:00:18;8.80;;;4.37;;
7659;SDS011;3872;47.902;8.162;2023-01-28T07:02:46;10.30;;;5.20;;
7659;SDS011;3872;47.902;8.162;2023-01-28T07:05:13;8.53;;;4.30;;
7659;SDS011;3872;47.902;8.162;2023-01-28T07:07:39;8.53;;;4.27;;
7659;SDS011;3872;47.902;8.162;2023-01-28T07:10:06;8.70;;;3.87;;
7659;SDS011;3872;47.902;8.162;2023-01-28T07:12:33;8.40;;;4.70;;
7659;SDS011;3872;47.902;8.162;2023-01-28T07:14:59;9.87;;;4.70;;
7659;SDS011;3872;47.902;8.162;2023-01-28T07:17:26;7.57;;;3.90;;
7659;SDS011;3872;47.902;8.162;2023-01-28T07:19:54;9.53;;;5.23;;
7659;SDS011;3872;47.902;8.162;2023-01-28T07:22:21;10.87;;;4.20;;
7659;SDS011;3872;47.902;8.162;2023-01-28T07:24:47;10.57;;;4.20;;
7659;SDS011;3872;47.902;8.162;2023-01-28T07:27:14;7.10;;;4.17;;
7659;SDS011;3872;47.902;8.162;2023-01-28T07:29:40;7.67;;;4.13;;
7659;SDS011;3872;47.902;8.162;2023-01-28T07:32:07;8.97;;;4.47;;
7659;SDS011;3872;47.902;8.162;2023-01-28T07:34:33;7.63;;;4.60;;
7659;SDS011;3872;47.902;8.162;2023-01-28T07:37:03;12.13;;;4.77;;
7659;SDS011;3872;47.902;8.162;2023-01-28T07:39:33;13.60;;;5.03;;
7659;SDS011;3872;47.902;8.162;2023-01-28T07:42:00;12.70;;;5.17;;
7659;SDS011;3872;47.902;8.162;2023-01-28T07:44:36;10.43;;;4.60;;
7659;SDS011;3872;47.902;8.162;2023-01-28T07:47:04;7.40;;;4.40;;
7659;SDS011;3872;47.902;8.162;2023-01-28T07:49:32;13.33;;;4.80;;
7659;SDS011;3872;47.902;8.162;2023-01-28T07:51:59;9.43;;;3.90;;
7659;SDS011;3872;47.902;8.162;2023-01-28T07:54:27;9.70;;;4.40;;
7659;SDS011;3872;47.902;8.162;2023-01-28T07:56:54;10.87;;;3.93;;
7659;SDS011;3872;47.902;8.162;2023-01-28T07:59:21;7.77;;;4.27;;
7659;SDS011;3872;47.902;8.162;2023-01-28T08:01:47;6.90;;;4.00;;
7659;SDS011;3872;47.902;8.162;2023-01-28T08:04:14;7.87;;;3.40;;
7659;SDS011;3872;47.902;8.162;2023-01-28T08:06:40;7.23;;;3.43;;
7659;SDS011;3872;47.902;8.162;2023-01-28T08:09:07;9.10;;;4.30;;
7659;SDS011;3872;47.902;8.162;2023-01-28T08:11:36;9.00;;;3.03;;
7659;SDS011;3872;47.902;8.162;2023-01-28T08:14:03;9.27;;;4.07;;
7659;SDS011;3872;47.902;8.162;2023-01-28T08:16:30;7.57;;;4.07;;
7659;SDS011;3872;47.902;8.162;2023-01-28T08:18:56;8.10;;;3.60;;
7659;SDS011;3872;47.902;8.162;2023-01-28T08:21:23;7.50;;;3.20;;
7659;SDS011;3872;47.902;8.162;2023-01-28T08:23:50;8.37;;;3.90;;
7659;SDS011;3872;47.902;8.162;2023-01-28T08:26:16;7.93;;;3.80;;
7659;SDS011;3872;47.902;8.162;2023-01-28T08:28:44;7.60;;;4.07;;
7659;SDS011;3872;47.902;8.162;2023-01-28T08:31:11;7.27;;;3.43;;
7659;SDS011;3872;47.902;8.162;2023-01-28T08:33:37;6.97;;;3.40;;
7659;SDS011;3872;47.902;8.162;2023-01-28T08:36:04;6.50;;;3.60;;
7659;SDS011;3872;47.902;8.162;2023-01-28T08:38:31;8.77;;;4.37;;
7659;SDS011;3872;47.902;8.162;2023-01-28T08:40:58;8.37;;;3.20;;
7659;SDS011;3872;47.902;8.162;2023-01-28T08:43:24;9.20;;;3.57;;
7659;SDS011;3872;47.902;8.162;2023-01-28T08:45:52;8.20;;;3.57;;
7659;SDS011;3872;47.902;8.162;2023-01-28T08:48:19;11.33;;;4.87;;
7659;SDS011;3872;47.902;8.162;2023-01-28T08:50:45;6.40;;;3.23;;
7659;SDS011;3872;47.902;8.162;2023-01-28T08:53:13;10.60;;;3.53;;
7659;SDS011;3872;47.902;8.162;2023-01-28T08:55:40;9.73;;;4.43;;
7659;SDS011;3872;47.902;8.162;2023-01-28T08:58:09;11.47;;;4.37;;
7659;SDS011;3872;47.902;8.162;2023-01-28T09:00:37;9.23;;;3.20;;
7659;SDS011;3872;47.902;8.162;2023-01-28T09:03:06;6.70;;;3.07;;
7659;SDS011;3872;47.902;8.162;2023-01-28T09:05:33;7.03;;;3.77;;
7659;SDS011;3872;47.902;8.162;2023-01-28T09:08:01;7.80;;;3.20;;
7659;SDS011;3872;47.902;8.162;2023-01-28T09:10:28;7.10;;;3.17;;
7659;SDS011;3872;47.902;8.162;2023-01-28T09:12:55;6.30;;;3.07;;
7659;SDS011;3872;47.902;8.162;2023-01-28T09:15:21;6.37;;;2.83;;
7659;SDS011;3872;47.902;8.162;2023-01-28T09:17:48;8.23;;;4.10;;
7659;SDS011;3872;47.902;8.162;2023-01-28T09:20:16;8.30;;;3.50;;
7659;SDS011;3872;47.902;8.162;2023-01-28T09:22:42;6.37;;;3.00;;
7659;SDS011;3872;47.902;8.162;2023-01-28T09:25:09;7.10;;;3.10;;
7659;SDS011;3872;47.902;8.162;2023-01-28T09:27:36;7.90;;;3.13;;
7659;SDS011;3872;47.902;8.162;2023-01-28T09:30:02;7.13;;;3.53;;
7659;SDS011;3872;47.902;8.162;2023-01-28T09:32:31;10.07;;;3.80;;
7659;SDS011;3872;47.902;8.162;2023-01-28T09:34:57;6.03;;;2.97;;
7659;SDS011;3872;47.902;8.162;2023-01-28T09:37:26;7.70;;;3.77;;
7659;SDS011;3872;47.902;8.162;2023-01-28T09:39:52;6.60;;;2.90;;
7659;SDS011;3872;47.902;8.162;2023-01-28T09:42:26;6.80;;;3.47;;
7659;SDS011;3872;47.902;8.162;2023-01-28T09:45:13;5.40;;;2.83;;
7659;SDS011;3872;47.902;8.162;2023-01-28T09:47:42;5.30;;;2.97;;
7659;SDS011;3872;47.902;8.162;2023-01-28T09:50:14;6.37;;;3.10;;
7659;SDS011;3872;47.902;8.162;2023-01-28T09:52:46;5.60;;;3.10;;
7659;SDS011;3872;47.902;8.162;2023-01-28T09:55:15;7.00;;;3.70;;
7659;SDS011;3872;47.902;8.162;2023-01-28T09:57:49;6.07;;;2.60;;
7659;SDS011;3872;47.902;8.162;2023-01-28T10:00:17;5.97;;;2.60;;
7659;SDS011;3872;47.902;8.162;2023-01-28T10:02:53;7.77;;;3.27;;
7659;SDS011;3872;47.902;8.162;2023-01-28T10:05:31;7.70;;;2.73;;
7659;SDS011;3872;47.902;8.162;2023-01-28T10:08:10;7.13;;;2.30;;
7659;SDS011;3872;47.902;8.162;2023-01-28T10:10:52;4.70;;;2.47;;
7659;SDS011;3872;47.902;8.162;2023-01-28T10:13:27;4.70;;;2.77;;
7659;SDS011;3872;47.902;8.162;2023-01-28T10:16:06;10.63;;;4.97;;
7659;SDS011;3872;47.902;8.162;2023-01-28T10:18:42;6.90;;;2.93;;
7659;SDS011;3872;47.902;8.162;2023-01-28T10:21:13;5.50;;;2.67;;
7659;SDS011;3872;47.902;8.162;2023-01-28T10:23:49;4.60;;;1.97;;
7659;SDS011;3872;47.902;8.162;2023-01-28T10:26:24;7.27;;;2.70;;
7659;SDS011;3872;47.902;8.162;2023-01-28T10:28:56;5.43;;;2.40;;
7659;SDS011;3872;47.902;8.162;2023-01-28T10:31:26;7.13;;;2.93;;
7659;SDS011;3872;47.902;8.162;2023-01-28T10:33:57;5.20;;;2.43;;
7659;SDS011;3872;47.902;8.162;2023-01-28T10:36:24;7.30;;;3.47;;
7659;SDS011;3872;47.902;8.162;2023-01-28T10:38:52;4.80;;;2.20;;
7659;SDS011;3872;47.902;8.162;2023-01-28T10:41:20;6.33;;;3.30;;
7659;SDS011;3872;47.902;8.162;2023-01-28T10:43:49;5.87;;;2.77;;
7659;SDS011;3872;47.902;8.162;2023-01-28T10:46:17;5.57;;;2.90;;
7659;SDS011;3872;47.902;8.162;2023-01-28T10:48:47;6.00;;;2.83;;
7659;SDS011;3872;47.902;8.162;2023-01-28T10:51:28;4.83;;;2.20;;
7659;SDS011;3872;47.902;8.162;2023-01-28T10:53:58;4.50;;;2.60;;
7659;SDS011;3872;47.902;8.162;2023-01-28T10:56:25;6.63;;;2.20;;
7659;SDS011;3872;47.902;8.162;2023-01-28T10:58:56;5.70;;;2.87;;
7659;SDS011;3872;47.902;8.162;2023-01-28T11:01:25;7.00;;;2.63;;
7659;SDS011;3872;47.902;8.162;2023-01-28T11:04:04;6.07;;;2.83;;
7659;SDS011;3872;47.902;8.162;2023-01-28T11:06:31;5.83;;;3.00;;
7659;SDS011;3872;47.902;8.162;2023-01-28T11:08:59;5.10;;;2.40;;
7659;SDS011;3872;47.902;8.162;2023-01-28T11:11:26;6.90;;;2.77;;
7659;SDS011;3872;47.902;8.162;2023-01-28T11:13:54;7.03;;;2.93;;
7659;SDS011;3872;47.902;8.162;2023-01-28T11:16:22;6.00;;;3.07;;
7659;SDS011;3872;47.902;8.162;2023-01-28T11:18:51;6.27;;;1.90;;
7659;SDS011;3872;47.902;8.162;2023-01-28T11:21:20;5.40;;;2.70;;
7659;SDS011;3872;47.902;8.162;2023-01-28T11:23:49;4.80;;;2.17;;
7659;SDS011;3872;47.902;8.162;2023-01-28T11:26:21;5.83;;;2.97;;
7659;SDS011;3872;47.902;8.162;2023-01-28T11:28:50;6.07;;;2.80;;
7659;SDS011;3872;47.902;8.162;2023-01-28T11:31:18;5.73;;;2.70;;
7659;SDS011;3872;47.902;8.162;2023-01-28T11:33:48;5.70;;;2.50;;
7659;SDS011;3872;47.902;8.162;2023-01-28T11:36:18;4.90;;;2.50;;
7659;SDS011;3872;47.902;8.162;2023-01-28T11:38:46;5.20;;;2.27;;
7659;SDS011;3872;47.902;8.162;2023-01-28T11:41:14;4.70;;;3.07;;
7659;SDS011;3872;47.902;8.162;2023-01-28T11:43:42;5.07;;;2.33;;
7659;SDS011;3872;47.902;8.162;2023-01-28T11:46:17;6.63;;;3.00;;
7659;SDS011;3872;47.902;8.162;2023-01-28T11:49:01;7.10;;;3.27;;
7659;SDS011;3872;47.902;8.162;2023-01-28T11:51:36;8.00;;;4.03;;
7659;SDS011;3872;47.902;8.162;2023-01-28T11:54:20;8.40;;;3.60;;
7659;SDS011;3872;47.902;8.162;2023-01-28T11:57:06;6.53;;;2.70;;
7659;SDS011;3872;47.902;8.162;2023-01-28T11:59:48;6.60;;;3.63;;
7659;SDS011;3872;47.902;8.162;2023-01-28T12:02:25;8.10;;;3.77;;
7659;SDS011;3872;47.902;8.162;2023-01-28T12:05:19;7.13;;;3.17;;
7659;SDS011;3872;47.902;8.162;2023-01-28T12:07:59;7.13;;;3.87;;
7659;SDS011;3872;47.902;8.162;2023-01-28T12:10:33;7.67;;;3.80;;
7659;SDS011;3872;47.902;8.162;2023-01-28T12:13:09;9.50;;;4.20;;
7659;SDS011;3872;47.902;8.162;2023-01-28T12:15:53;8.73;;;4.57;;
7659;SDS011;3872;47.902;8.162;2023-01-28T12:18:39;4.83;;;2.60;;
7659;SDS011;3872;47.902;8.162;2023-01-28T12:21:20;8.93;;;4.37;;
7659;SDS011;3872;47.902;8.162;2023-01-28T12:23:59;7.53;;;3.30;;
7659;SDS011;3872;47.902;8.162;2023-01-28T12:26:40;7.70;;;3.13;;
7659;SDS011;3872;47.902;8.162;2023-01-28T12:29:17;8.83;;;4.43;;
7659;SDS011;3872;47.902;8.162;2023-01-28T12:32:05;9.20;;;4.00;;
7659;SDS011;3872;47.902;8.162;2023-01-28T12:34:47;7.77;;;3.93;;
7659;SDS011;3872;47.902;8.162;2023-01-28T12:37:24;11.67;;;4.20;;
7659;SDS011;3872;47.902;8.162;2023-01-28T12:40:04;9.33;;;3.80;;
7659;SDS011;3872;47.902;8.162;2023-01-28T12:42:43;9.73;;;4.40;;
7659;SDS011;3872;47.902;8.162;2023-01-28T12:45:17;7.93;;;4.60;;
7659;SDS011;3872;47.902;8.162;2023-01-28T12:47:52;8.23;;;4.83;;
7659;SDS011;3872;47.902;8.162;2023-01-28T12:50:25;9.17;;;4.00;;
7659;SDS011;3872;47.902;8.162;2023-01-28T12:52:54;6.87;;;3.80;;
7659;SDS011;3872;47.902;8.162;2023-01-28T12:55:29;7.37;;;3.80;;
7659;SDS011;3872;47.902;8.162;2023-01-28T12:58:05;11.10;;;4.70;;
7659;SDS011;3872;47.902;8.162;2023-01-28T13:00:38;9.73;;;5.10;;
7659;SDS011;3872;47.902;8.162;2023-01-28T13:03:16;7.20;;;3.80;;
7659;SDS011;3872;47.902;8.162;2023-01-28T13:05:49;8.97;;;4.27;;
7659;SDS011;3872;47.902;8.162;2023-01-28T13:08:18;7.83;;;4.93;;
7659;SDS011;3872;47.902;8.162;2023-01-28T13:10:48;12.70;;;4.60;;
7659;SDS011;3872;47.902;8.162;2023-01-28T13:13:16;8.63;;;3.53;;
7659;SDS011;3872;47.902;8.162;2023-01-28T13:15:46;9.73;;;4.10;;
7659;SDS011;3872;47.902;8.162;2023-01-28T13:18:31;10.90;;;5.10;;
7659;SDS011;3872;47.902;8.162;2023-01-28T13:21:00;8.87;;;4.30;;
7659;SDS011;3872;47.902;8.162;2023-01-28T13:23:35;6.73;;;3.50;;
7659;SDS011;3872;47.902;8.162;2023-01-28T13:26:11;11.00;;;4.70;;
7659;SDS011;3872;47.902;8.162;2023-01-28T13:28:53;12.50;;;4.43;;
7659;SDS011;3872;47.902;8.162;2023-01-28T13:31:36;10.07;;;4.20;;
7659;SDS011;3872;47.902;8.162;2023-01-28T13:34:05;8.43;;;4.37;;
7659;SDS011;3872;47.902;8.162;2023-01-28T13:36:36;9.70;;;4.30;;
7659;SDS011;3872;47.902;8.162;2023-01-28T13:39:13;8.90;;;4.07;;
7659;SDS011;3872;47.902;8.162;2023-01-28T13:41:44;11.17;;;4.13;;
7659;SDS011;3872;47.902;8.162;2023-01-28T13:44:16;6.00;;;3.23;;
7659;SDS011;3872;47.902;8.162;2023-01-28T13:46:44;9.57;;;4.57;;
7659;SDS011;3872;47.902;8.162;2023-01-28T13:49:13;7.57;;;3.97;;
7659;SDS011;3872;47.902;8.162;2023-01-28T13:51:55;9.13;;;4.50;;
7659;SDS011;3872;47.902;8.162;2023-01-28T13:54:25;9.63;;;4.77;;
7659;SDS011;3872;47.902;8.162;2023-01-28T13:56:58;10.23;;;4.10;;
7659;SDS011;3872;47.902;8.162;2023-01-28T13:59:42;11.70;;;4.73;;
7659;SDS011;3872;47.902;8.162;2023-01-28T14:02:30;7.57;;;4.30;;
7659;SDS011;3872;47.902;8.162;2023-01-28T14:08:44;11.97;;;4.77;;
7659;SDS011;3872;47.902;8.162;2023-01-28T14:11:29;11.30;;;4.80;;
7659;SDS011;3872;47.902;8.162;2023-01-28T14:14:18;12.77;;;4.73;;
7659;SDS011;3872;47.902;8.162;2023-01-28T14:16:57;10.93;;;5.17;;
7659;SDS011;3872;47.902;8.162;2023-01-28T14:19:28;8.47;;;4.97;;
7659;SDS011;3872;47.902;8.162;2023-01-28T14:22:04;9.47;;;4.27;;
7659;SDS011;3872;47.902;8.162;2023-01-28T14:24:32;12.77;;;5.10;;
7659;SDS011;3872;47.902;8.162;2023-01-28T14:27:00;10.17;;;5.50;;
7659;SDS011;3872;47.902;8.162;2023-01-28T14:29:36;6.67;;;3.40;;
7659;SDS011;3872;47.902;8.162;2023-01-28T14:32:13;8.47;;;4.13;;
7659;SDS011;3872;47.902;8.162;2023-01-28T14:34:41;9.43;;;4.20;;
7659;SDS011;3872;47.902;8.162;2023-01-28T14:37:11;9.73;;;4.67;;
7659;SDS011;3872;47.902;8.162;2023-01-28T14:39:40;9.50;;;4.00;;
7659;SDS011;3872;47.902;8.162;2023-01-28T14:42:12;7.53;;;4.00;;
7659;SDS011;3872;47.902;8.162;2023-01-28T14:44:43;10.03;;;5.03;;
7659;SDS011;3872;47.902;8.162;2023-01-28T14:47:17;10.40;;;4.40;;
7659;SDS011;3872;47.902;8.162;2023-01-28T14:49:58;9.80;;;4.20;;
7659;SDS011;3872;47.902;8.162;2023-01-28T14:52:49;8.70;;;4.10;;
7659;SDS011;3872;47.902;8.162;2023-01-28T14:55:29;8.13;;;4.20;;
7659;SDS011;3872;47.902;8.162;2023-01-28T14:58:03;8.03;;;4.00;;
7659;SDS011;3872;47.902;8.162;2023-01-28T15:00:34;9.10;;;3.73;;
7659;SDS011;3872;47.902;8.162;2023-01-28T15:03:07;9.30;;;3.80;;
7659;SDS011;3872;47.902;8.162;2023-01-28T15:05:34;7.40;;;4.03;;
7659;SDS011;3872;47.902;8.162;2023-01-28T15:08:02;6.50;;;3.53;;
7659;SDS011;3872;47.902;8.162;2023-01-28T15:10:30;8.53;;;3.57;;
7659;SDS011;3872;47.902;8.162;2023-01-28T15:13:03;9.70;;;3.90;;
7659;SDS011;3872;47.902;8.162;2023-01-28T15:15:33;7.77;;;3.90;;
7659;SDS011;3872;47.902;8.162;2023-01-28T15:18:03;7.37;;;3.80;;
7659;SDS011;3872;47.902;8.162;2023-01-28T15:20:33;7.90;;;4.13;;
7659;SDS011;3872;47.902;8.162;2023-01-28T15:23:00;8.00;;;3.93;;
7659;SDS011;3872;47.902;8.162;2023-01-28T15:25:31;6.80;;;3.13;;
7659;SDS011;3872;47.902;8.162;2023-01-28T15:27:59;9.13;;;4.37;;
7659;SDS011;3872;47.902;8.162;2023-01-28T15:30:27;7.97;;;4.20;;
7659;SDS011;3872;47.902;8.162;2023-01-28T15:32:58;7.93;;;3.60;;
7659;SDS011;3872;47.902;8.162;2023-01-28T15:35:26;14.40;;;3.80;;
7659;SDS011;3872;47.902;8.162;2023-01-28T15:37:53;9.53;;;4.27;;
7659;SDS011;3872;47.902;8.162;2023-01-28T15:40:21;8.00;;;4.07;;